sensor_id;sensor_type;location;lat;lon;timestamp;P1;durP1;ratioP1;P2;durP2;ratioP2
49372;SDS011;44113;38.408;-122.974;2022-08-05T00:02:21;8.18;;;2.35;;
49372;SDS011;44113;38.408;-122.974;2022-08-05T00:04:48;18.48;;;2.88;;
49372;SDS011;44113;38.408;-122.974;2022-08-05T00:07:14;19.42;;;2.67;;
49372;SDS011;44113;38.408;-122.974;2022-08-05T00:09:41;12.05;;;3.28;;
49372;SDS011;44113;38.408;-122.974;2022-08-05T00:12:08;9.52;;;1.85;;
49372;SDS011;44113;38.408;-122.974;2022-08-05T00:14:34;16.27;;;5.15;;
49372;SDS011;44113;38.408;-122.974;2022-08-05T00:17:01;8.35;;;2.33;;
49372;SDS011;44113;38.408;-122.974;2022-08-05T00:19:28;11.80;;;2.75;;
49372;SDS011;44113;38.408;-122.974;2022-08-05T00:21:55;19.98;;;2.60;;
49372;SDS011;44113;38.408;-122.974;2022-08-05T00:24:21;12.38;;;2.75;;
49372;SDS011;44113;38.408;-122.974;2022-08-05T00:26:48;7.47;;;2.53;;
49372;SDS011;44113;38.408;-122.974;2022-08-05T00:29:14;11.65;;;2.58;;
49372;SDS011;44113;38.408;-122.974;2022-08-05T00:31:41;13.23;;;3.53;;
49372;SDS011;44113;38.408;-122.974;2022-08-05T00:34:09;23.50;;;3.42;;
49372;SDS011;44113;38.408;-122.974;2022-08-05T00:36:36;14.95;;;3.78;;
49372;SDS011;44113;38.408;-122.974;2022-08-05T00:39:02;13.88;;;3.75;;
49372;SDS011;44113;38.408;-122.974;2022-08-05T00:41:30;13.85;;;2.97;;
49372;SDS011;44113;38.408;-122.974;2022-08-05T00:43:58;13.73;;;3.67;;
49372;SDS011;44113;38.408;-122.974;2022-08-05T00:46:26;20.77;;;4.28;;
49372;SDS011;44113;38.408;-122.974;2022-08-05T00:48:54;12.88;;;3.22;;
49372;SDS011;44113;38.408;-122.974;2022-08-05T00:51:21;15.98;;;3.15;;
49372;SDS011;44113;38.408;-122.974;2022-08-05T00:53:48;21.88;;;3.83;;
49372;SDS011;44113;38.408;-122.974;2022-08-05T00:56:15;10.18;;;2.35;;
49372;SDS011;44113;38.408;-122.974;2022-08-05T00:58:43;17.67;;;4.30;;
49372;SDS011;44113;38.408;-122.974;2022-08-05T01:01:10;11.57;;;2.97;;
49372;SDS011;44113;38.408;-122.974;2022-08-05T01:03:39;16.83;;;3.30;;
49372;SDS011;44113;38.408;-122.974;2022-08-05T01:06:07;14.10;;;4.63;;
49372;SDS011;44113;38.408;-122.974;2022-08-05T01:08:34;18.55;;;4.88;;
49372;SDS011;44113;38.408;-122.974;2022-08-05T01:11:08;13.93;;;3.40;;
49372;SDS011;44113;38.408;-122.974;2022-08-05T01:16:37;20.75;;;3.85;;
49372;SDS011;44113;38.408;-122.974;2022-08-05T01:19:54;6.32;;;1.95;;
49372;SDS011;44113;38.408;-122.974;2022-08-05T01:22:29;17.10;;;3.35;;
49372;SDS011;44113;38.408;-122.974;2022-08-05T01:30:18;12.70;;;2.58;;
49372;SDS011;44113;38.408;-122.974;2022-08-05T01:32:46;8.05;;;1.70;;
49372;SDS011;44113;38.408;-122.974;2022-08-05T01:35:16;5.78;;;2.63;;
49372;SDS011;44113;38.408;-122.974;2022-08-05T01:37:50;9.00;;;2.53;;
49372;SDS011;44113;38.408;-122.974;2022-08-05T01:40:18;6.57;;;1.33;;
49372;SDS011;44113;38.408;-122.974;2022-08-05T01:42:48;9.07;;;2.67;;
49372;SDS011;44113;38.408;-122.974;2022-08-05T01:45:18;7.18;;;1.30;;
49372;SDS011;44113;38.408;-122.974;2022-08-05T01:47:45;12.95;;;3.58;;
49372;SDS011;44113;38.408;-122.974;2022-08-05T01:50:26;7.40;;;1.95;;
49372;SDS011;44113;38.408;-122.974;2022-08-05T01:52:55;6.22;;;1.65;;
49372;SDS011;44113;38.408;-122.974;2022-08-05T01:55:25;6.68;;;2.17;;
49372;SDS011;44113;38.408;-122.974;2022-08-05T01:57:54;7.20;;;3.28;;
49372;SDS011;44113;38.408;-122.974;2022-08-05T02:00:22;10.85;;;1.63;;
49372;SDS011;44113;38.408;-122.974;2022-08-05T02:03:03;12.60;;;1.88;;
49372;SDS011;44113;38.408;-122.974;2022-08-05T02:05:35;6.68;;;1.88;;
49372;SDS011;44113;38.408;-122.974;2022-08-05T02:08:05;3.78;;;1.05;;
49372;SDS011;44113;38.408;-122.974;2022-08-05T02:10:36;8.90;;;2.58;;
49372;SDS011;44113;38.408;-122.974;2022-08-05T02:16:19;8.80;;;1.95;;
49372;SDS011;44113;38.408;-122.974;2022-08-05T02:21:38;9.18;;;1.80;;
49372;SDS011;44113;38.408;-122.974;2022-08-05T02:24:13;8.50;;;1.48;;
49372;SDS011;44113;38.408;-122.974;2022-08-05T02:26:45;6.57;;;1.02;;
49372;SDS011;44113;38.408;-122.974;2022-08-05T02:29:20;4.10;;;1.08;;
49372;SDS011;44113;38.408;-122.974;2022-08-05T02:31:49;2.40;;;0.95;;
49372;SDS011;44113;38.408;-122.974;2022-08-05T02:34:18;5.38;;;1.08;;
49372;SDS011;44113;38.408;-122.974;2022-08-05T02:36:55;6.55;;;1.80;;
49372;SDS011;44113;38.408;-122.974;2022-08-05T02:39:24;5.22;;;0.98;;
49372;SDS011;44113;38.408;-122.974;2022-08-05T02:41:54;2.17;;;0.93;;
49372;SDS011;44113;38.408;-122.974;2022-08-05T02:44:23;4.57;;;1.20;;
49372;SDS011;44113;38.408;-122.974;2022-08-05T02:46:51;4.13;;;1.00;;
49372;SDS011;44113;38.408;-122.974;2022-08-05T02:49:22;4.45;;;0.82;;
49372;SDS011;44113;38.408;-122.974;2022-08-05T02:51:50;5.18;;;0.73;;
49372;SDS011;44113;38.408;-122.974;2022-08-05T02:54:19;5.07;;;0.75;;
49372;SDS011;44113;38.408;-122.974;2022-08-05T02:56:46;2.85;;;0.68;;
49372;SDS011;44113;38.408;-122.974;2022-08-05T02:59:14;3.72;;;0.98;;
49372;SDS011;44113;38.408;-122.974;2022-08-05T03:01:43;8.02;;;2.08;;
49372;SDS011;44113;38.408;-122.974;2022-08-05T03:04:14;5.65;;;1.23;;
49372;SDS011;44113;38.408;-122.974;2022-08-05T03:06:44;4.53;;;0.73;;
49372;SDS011;44113;38.408;-122.974;2022-08-05T03:09:11;3.25;;;1.17;;
49372;SDS011;44113;38.408;-122.974;2022-08-05T03:11:42;2.42;;;0.65;;
49372;SDS011;44113;38.408;-122.974;2022-08-05T03:14:09;2.78;;;1.15;;
49372;SDS011;44113;38.408;-122.974;2022-08-05T03:16:36;3.85;;;1.00;;
49372;SDS011;44113;38.408;-122.974;2022-08-05T03:19:03;4.07;;;0.60;;
49372;SDS011;44113;38.408;-122.974;2022-08-05T03:21:30;3.78;;;1.05;;
49372;SDS011;44113;38.408;-122.974;2022-08-05T03:23:56;4.38;;;1.58;;
49372;SDS011;44113;38.408;-122.974;2022-08-05T03:26:23;5.90;;;0.82;;
49372;SDS011;44113;38.408;-122.974;2022-08-05T03:28:50;4.80;;;0.80;;
49372;SDS011;44113;38.408;-122.974;2022-08-05T03:31:16;3.28;;;0.68;;
49372;SDS011;44113;38.408;-122.974;2022-08-05T03:33:43;4.22;;;1.77;;
49372;SDS011;44113;38.408;-122.974;2022-08-05T03:36:09;5.65;;;1.23;;
49372;SDS011;44113;38.408;-122.974;2022-08-05T03:38:39;2.88;;;1.00;;
49372;SDS011;44113;38.408;-122.974;2022-08-05T03:41:06;6.20;;;0.68;;
49372;SDS011;44113;38.408;-122.974;2022-08-05T03:43:33;5.72;;;1.50;;
49372;SDS011;44113;38.408;-122.974;2022-08-05T03:46:00;7.45;;;1.23;;
49372;SDS011;44113;38.408;-122.974;2022-08-05T03:48:28;5.25;;;1.98;;
49372;SDS011;44113;38.408;-122.974;2022-08-05T03:51:11;7.97;;;1.05;;
49372;SDS011;44113;38.408;-122.974;2022-08-05T03:53:54;6.05;;;0.60;;
49372;SDS011;44113;38.408;-122.974;2022-08-05T03:56:45;4.63;;;0.82;;
49372;SDS011;44113;38.408;-122.974;2022-08-05T03:59:19;5.82;;;0.80;;
49372;SDS011;44113;38.408;-122.974;2022-08-05T04:01:50;3.90;;;1.02;;
49372;SDS011;44113;38.408;-122.974;2022-08-05T04:04:18;5.10;;;1.13;;
49372;SDS011;44113;38.408;-122.974;2022-08-05T04:06:45;6.38;;;1.42;;
49372;SDS011;44113;38.408;-122.974;2022-08-05T04:09:14;5.65;;;1.95;;
49372;SDS011;44113;38.408;-122.974;2022-08-05T04:11:42;4.30;;;2.15;;
49372;SDS011;44113;38.408;-122.974;2022-08-05T04:14:08;10.70;;;1.95;;
49372;SDS011;44113;38.408;-122.974;2022-08-05T04:16:35;5.22;;;1.13;;
49372;SDS011;44113;38.408;-122.974;2022-08-05T04:19:02;3.03;;;0.93;;
49372;SDS011;44113;38.408;-122.974;2022-08-05T04:21:29;5.28;;;0.80;;
49372;SDS011;44113;38.408;-122.974;2022-08-05T04:23:56;3.75;;;1.13;;
49372;SDS011;44113;38.408;-122.974;2022-08-05T04:26:25;5.60;;;1.00;;
49372;SDS011;44113;38.408;-122.974;2022-08-05T04:28:52;20.30;;;1.35;;
49372;SDS011;44113;38.408;-122.974;2022-08-05T04:31:18;4.22;;;0.40;;
49372;SDS011;44113;38.408;-122.974;2022-08-05T04:33:45;7.30;;;0.60;;
49372;SDS011;44113;38.408;-122.974;2022-08-05T04:36:12;4.80;;;1.67;;
49372;SDS011;44113;38.408;-122.974;2022-08-05T04:38:41;6.40;;;0.85;;
49372;SDS011;44113;38.408;-122.974;2022-08-05T04:41:08;7.03;;;0.40;;
49372;SDS011;44113;38.408;-122.974;2022-08-05T04:43:35;2.65;;;0.70;;
49372;SDS011;44113;38.408;-122.974;2022-08-05T04:46:02;2.65;;;0.40;;
49372;SDS011;44113;38.408;-122.974;2022-08-05T04:48:29;1.63;;;0.65;;
49372;SDS011;44113;38.408;-122.974;2022-08-05T04:50:56;2.10;;;0.40;;
49372;SDS011;44113;38.408;-122.974;2022-08-05T04:53:23;5.18;;;0.77;;
49372;SDS011;44113;38.408;-122.974;2022-08-05T04:55:49;3.25;;;0.30;;
49372;SDS011;44113;38.408;-122.974;2022-08-05T04:58:16;2.10;;;0.35;;
49372;SDS011;44113;38.408;-122.974;2022-08-05T05:00:43;0.82;;;0.22;;
49372;SDS011;44113;38.408;-122.974;2022-08-05T05:03:10;3.92;;;0.30;;
49372;SDS011;44113;38.408;-122.974;2022-08-05T05:05:36;2.08;;;0.22;;
49372;SDS011;44113;38.408;-122.974;2022-08-05T05:08:04;0.70;;;0.20;;
49372;SDS011;44113;38.408;-122.974;2022-08-05T05:10:36;0.52;;;0.20;;
49372;SDS011;44113;38.408;-122.974;2022-08-05T05:13:09;0.73;;;0.20;;
49372;SDS011;44113;38.408;-122.974;2022-08-05T05:15:40;1.88;;;0.20;;
49372;SDS011;44113;38.408;-122.974;2022-08-05T05:18:07;1.00;;;0.30;;
49372;SDS011;44113;38.408;-122.974;2022-08-05T05:20:34;1.63;;;0.20;;
49372;SDS011;44113;38.408;-122.974;2022-08-05T05:23:02;0.68;;;0.25;;
49372;SDS011;44113;38.408;-122.974;2022-08-05T05:25:29;0.88;;;0.20;;
49372;SDS011;44113;38.408;-122.974;2022-08-05T05:27:56;5.68;;;0.30;;
49372;SDS011;44113;38.408;-122.974;2022-08-05T05:30:22;0.73;;;0.20;;
49372;SDS011;44113;38.408;-122.974;2022-08-05T05:32:49;1.20;;;1.10;;
49372;SDS011;44113;38.408;-122.974;2022-08-05T05:35:15;0.68;;;0.22;;
49372;SDS011;44113;38.408;-122.974;2022-08-05T05:37:48;0.35;;;0.20;;
49372;SDS011;44113;38.408;-122.974;2022-08-05T05:40:19;0.73;;;0.15;;
49372;SDS011;44113;38.408;-122.974;2022-08-05T05:42:46;0.52;;;0.20;;
49372;SDS011;44113;38.408;-122.974;2022-08-05T05:45:14;3.70;;;0.25;;
49372;SDS011;44113;38.408;-122.974;2022-08-05T05:47:42;0.50;;;0.20;;
49372;SDS011;44113;38.408;-122.974;2022-08-05T05:50:10;0.68;;;0.10;;
49372;SDS011;44113;38.408;-122.974;2022-08-05T05:52:39;0.47;;;0.10;;
49372;SDS011;44113;38.408;-122.974;2022-08-05T05:55:07;0.65;;;0.20;;
49372;SDS011;44113;38.408;-122.974;2022-08-05T05:57:36;0.43;;;0.20;;
49372;SDS011;44113;38.408;-122.974;2022-08-05T06:00:05;0.50;;;0.15;;
49372;SDS011;44113;38.408;-122.974;2022-08-05T06:02:36;1.23;;;0.28;;
49372;SDS011;44113;38.408;-122.974;2022-08-05T06:05:03;0.25;;;0.10;;
49372;SDS011;44113;38.408;-122.974;2022-08-05T06:07:32;0.30;;;0.10;;
49372;SDS011;44113;38.408;-122.974;2022-08-05T06:09:58;1.48;;;0.30;;
49372;SDS011;44113;38.408;-122.974;2022-08-05T06:12:25;0.40;;;0.10;;
49372;SDS011;44113;38.408;-122.974;2022-08-05T06:14:51;0.13;;;0.10;;
49372;SDS011;44113;38.408;-122.974;2022-08-05T06:17:17;1.20;;;0.13;;
49372;SDS011;44113;38.408;-122.974;2022-08-05T06:19:44;0.85;;;0.10;;
49372;SDS011;44113;38.408;-122.974;2022-08-05T06:22:10;0.32;;;0.10;;
49372;SDS011;44113;38.408;-122.974;2022-08-05T06:24:40;0.30;;;0.10;;
49372;SDS011;44113;38.408;-122.974;2022-08-05T06:27:07;0.25;;;0.10;;
49372;SDS011;44113;38.408;-122.974;2022-08-05T06:29:34;0.50;;;0.20;;
49372;SDS011;44113;38.408;-122.974;2022-08-05T06:32:00;4.13;;;0.10;;
49372;SDS011;44113;38.408;-122.974;2022-08-05T06:34:27;1.20;;;0.20;;
49372;SDS011;44113;38.408;-122.974;2022-08-05T06:36:54;7.68;;;0.45;;
49372;SDS011;44113;38.408;-122.974;2022-08-05T06:39:21;2.05;;;0.20;;
49372;SDS011;44113;38.408;-122.974;2022-08-05T06:41:48;0.70;;;0.20;;
49372;SDS011;44113;38.408;-122.974;2022-08-05T06:44:15;0.43;;;0.10;;
49372;SDS011;44113;38.408;-122.974;2022-08-05T06:46:41;1.77;;;0.20;;
49372;SDS011;44113;38.408;-122.974;2022-08-05T06:49:08;4.05;;;0.30;;
49372;SDS011;44113;38.408;-122.974;2022-08-05T06:51:34;14.00;;;0.50;;
49372;SDS011;44113;38.408;-122.974;2022-08-05T06:54:02;16.10;;;0.73;;
49372;SDS011;44113;38.408;-122.974;2022-08-05T06:56:30;28.88;;;2.78;;
49372;SDS011;44113;38.408;-122.974;2022-08-05T06:58:58;23.60;;;1.00;;
49372;SDS011;44113;38.408;-122.974;2022-08-05T07:01:24;29.48;;;2.72;;
49372;SDS011;44113;38.408;-122.974;2022-08-05T07:03:51;16.10;;;1.35;;
49372;SDS011;44113;38.408;-122.974;2022-08-05T07:06:18;31.13;;;0.98;;
49372;SDS011;44113;38.408;-122.974;2022-08-05T07:08:45;20.58;;;1.17;;
49372;SDS011;44113;38.408;-122.974;2022-08-05T07:11:12;18.20;;;2.13;;
49372;SDS011;44113;38.408;-122.974;2022-08-05T07:13:38;13.00;;;0.90;;
49372;SDS011;44113;38.408;-122.974;2022-08-05T07:16:23;6.25;;;0.40;;
49372;SDS011;44113;38.408;-122.974;2022-08-05T07:19:09;15.80;;;1.17;;
49372;SDS011;44113;38.408;-122.974;2022-08-05T07:21:35;12.65;;;1.15;;
49372;SDS011;44113;38.408;-122.974;2022-08-05T07:24:02;19.92;;;2.58;;
49372;SDS011;44113;38.408;-122.974;2022-08-05T07:26:29;12.00;;;1.25;;
49372;SDS011;44113;38.408;-122.974;2022-08-05T07:28:56;7.68;;;0.60;;
49372;SDS011;44113;38.408;-122.974;2022-08-05T07:31:22;6.22;;;0.40;;
49372;SDS011;44113;38.408;-122.974;2022-08-05T07:33:50;11.02;;;1.73;;
49372;SDS011;44113;38.408;-122.974;2022-08-05T07:36:17;15.20;;;1.88;;
49372;SDS011;44113;38.408;-122.974;2022-08-05T07:38:43;6.50;;;0.60;;
49372;SDS011;44113;38.408;-122.974;2022-08-05T07:41:11;22.70;;;1.80;;
49372;SDS011;44113;38.408;-122.974;2022-08-05T07:43:42;4.65;;;0.85;;
49372;SDS011;44113;38.408;-122.974;2022-08-05T07:46:10;13.13;;;1.58;;
49372;SDS011;44113;38.408;-122.974;2022-08-05T07:48:37;11.65;;;0.60;;
49372;SDS011;44113;38.408;-122.974;2022-08-05T07:51:04;6.18;;;1.40;;
49372;SDS011;44113;38.408;-122.974;2022-08-05T07:53:30;11.73;;;0.50;;
49372;SDS011;44113;38.408;-122.974;2022-08-05T07:55:57;7.97;;;1.05;;
49372;SDS011;44113;38.408;-122.974;2022-08-05T07:58:24;8.63;;;0.40;;
49372;SDS011;44113;38.408;-122.974;2022-08-05T08:00:50;6.00;;;0.77;;
49372;SDS011;44113;38.408;-122.974;2022-08-05T08:03:17;8.32;;;0.85;;
49372;SDS011;44113;38.408;-122.974;2022-08-05T08:05:44;6.00;;;0.45;;
49372;SDS011;44113;38.408;-122.974;2022-08-05T08:08:11;7.47;;;1.05;;
49372;SDS011;44113;38.408;-122.974;2022-08-05T08:10:38;7.47;;;0.40;;
49372;SDS011;44113;38.408;-122.974;2022-08-05T08:13:06;6.85;;;1.08;;
49372;SDS011;44113;38.408;-122.974;2022-08-05T08:15:32;9.45;;;1.15;;
49372;SDS011;44113;38.408;-122.974;2022-08-05T08:17:59;6.13;;;0.50;;
49372;SDS011;44113;38.408;-122.974;2022-08-05T08:20:27;14.25;;;0.88;;
49372;SDS011;44113;38.408;-122.974;2022-08-05T08:22:57;4.57;;;0.38;;
49372;SDS011;44113;38.408;-122.974;2022-08-05T08:25:25;5.63;;;0.32;;
49372;SDS011;44113;38.408;-122.974;2022-08-05T08:27:55;2.85;;;0.30;;
49372;SDS011;44113;38.408;-122.974;2022-08-05T08:30:23;4.43;;;0.40;;
49372;SDS011;44113;38.408;-122.974;2022-08-05T08:32:50;4.28;;;0.57;;
49372;SDS011;44113;38.408;-122.974;2022-08-05T08:35:17;5.53;;;0.63;;
49372;SDS011;44113;38.408;-122.974;2022-08-05T08:37:45;4.68;;;0.43;;
49372;SDS011;44113;38.408;-122.974;2022-08-05T08:40:12;3.53;;;0.30;;
49372;SDS011;44113;38.408;-122.974;2022-08-05T08:42:39;6.82;;;0.30;;
49372;SDS011;44113;38.408;-122.974;2022-08-05T08:45:07;3.97;;;0.60;;
49372;SDS011;44113;38.408;-122.974;2022-08-05T08:47:35;1.15;;;0.20;;
49372;SDS011;44113;38.408;-122.974;2022-08-05T08:50:02;2.50;;;0.50;;
49372;SDS011;44113;38.408;-122.974;2022-08-05T08:52:31;3.50;;;0.45;;
49372;SDS011;44113;38.408;-122.974;2022-08-05T08:55:00;2.33;;;0.22;;
49372;SDS011;44113;38.408;-122.974;2022-08-05T08:57:28;3.38;;;0.30;;
49372;SDS011;44113;38.408;-122.974;2022-08-05T08:59:56;2.28;;;0.20;;
49372;SDS011;44113;38.408;-122.974;2022-08-05T09:02:24;3.92;;;0.60;;
49372;SDS011;44113;38.408;-122.974;2022-08-05T09:04:51;2.63;;;0.32;;
49372;SDS011;44113;38.408;-122.974;2022-08-05T09:07:17;5.00;;;0.30;;
49372;SDS011;44113;38.408;-122.974;2022-08-05T09:09:44;2.30;;;0.43;;
49372;SDS011;44113;38.408;-122.974;2022-08-05T09:12:11;1.55;;;0.20;;
49372;SDS011;44113;38.408;-122.974;2022-08-05T09:14:38;2.92;;;0.20;;
49372;SDS011;44113;38.408;-122.974;2022-08-05T09:17:06;1.67;;;0.30;;
49372;SDS011;44113;38.408;-122.974;2022-08-05T09:19:37;2.63;;;0.10;;
49372;SDS011;44113;38.408;-122.974;2022-08-05T09:22:04;2.13;;;0.50;;
49372;SDS011;44113;38.408;-122.974;2022-08-05T09:24:34;3.75;;;0.30;;
49372;SDS011;44113;38.408;-122.974;2022-08-05T09:27:06;3.33;;;0.43;;
49372;SDS011;44113;38.408;-122.974;2022-08-05T09:29:38;3.42;;;0.20;;
49372;SDS011;44113;38.408;-122.974;2022-08-05T09:32:10;3.58;;;1.20;;
49372;SDS011;44113;38.408;-122.974;2022-08-05T09:34:50;3.05;;;0.20;;
49372;SDS011;44113;38.408;-122.974;2022-08-05T09:37:20;4.28;;;0.20;;
49372;SDS011;44113;38.408;-122.974;2022-08-05T09:39:50;5.78;;;0.30;;
49372;SDS011;44113;38.408;-122.974;2022-08-05T09:42:18;1.95;;;0.22;;
49372;SDS011;44113;38.408;-122.974;2022-08-05T09:44:47;3.83;;;0.40;;
49372;SDS011;44113;38.408;-122.974;2022-08-05T09:49:46;2.13;;;0.30;;
49372;SDS011;44113;38.408;-122.974;2022-08-05T09:57:34;2.47;;;0.45;;
49372;SDS011;44113;38.408;-122.974;2022-08-05T10:00:09;1.08;;;0.20;;
49372;SDS011;44113;38.408;-122.974;2022-08-05T10:02:45;0.73;;;0.10;;
49372;SDS011;44113;38.408;-122.974;2022-08-05T10:05:20;0.68;;;0.20;;
49372;SDS011;44113;38.408;-122.974;2022-08-05T10:07:55;0.85;;;0.20;;
49372;SDS011;44113;38.408;-122.974;2022-08-05T10:10:24;1.95;;;0.10;;
49372;SDS011;44113;38.408;-122.974;2022-08-05T10:12:54;1.52;;;0.20;;
49372;SDS011;44113;38.408;-122.974;2022-08-05T10:15:24;0.90;;;0.20;;
49372;SDS011;44113;38.408;-122.974;2022-08-05T10:18:26;2.67;;;0.10;;
49372;SDS011;44113;38.408;-122.974;2022-08-05T10:20:48;1.80;;;0.10;;
49372;SDS011;44113;38.408;-122.974;2022-08-05T10:23:20;0.50;;;0.10;;
49372;SDS011;44113;38.408;-122.974;2022-08-05T10:25:48;1.83;;;0.10;;
49372;SDS011;44113;38.408;-122.974;2022-08-05T10:28:15;1.80;;;0.50;;
49372;SDS011;44113;38.408;-122.974;2022-08-05T10:30:42;4.40;;;0.20;;
49372;SDS011;44113;38.408;-122.974;2022-08-05T10:33:09;2.15;;;0.10;;
49372;SDS011;44113;38.408;-122.974;2022-08-05T10:35:35;1.63;;;0.10;;
49372;SDS011;44113;38.408;-122.974;2022-08-05T10:38:03;0.60;;;0.10;;
49372;SDS011;44113;38.408;-122.974;2022-08-05T10:46:05;2.25;;;0.20;;
49372;SDS011;44113;38.408;-122.974;2022-08-05T10:48:34;6.38;;;0.20;;
49372;SDS011;44113;38.408;-122.974;2022-08-05T10:51:09;2.13;;;0.20;;
49372;SDS011;44113;38.408;-122.974;2022-08-05T10:56:04;1.63;;;0.10;;
49372;SDS011;44113;38.408;-122.974;2022-08-05T11:01:28;1.75;;;0.20;;
49372;SDS011;44113;38.408;-122.974;2022-08-05T11:06:34;5.05;;;0.40;;
49372;SDS011;44113;38.408;-122.974;2022-08-05T11:12:45;0.60;;;0.10;;
49372;SDS011;44113;38.408;-122.974;2022-08-05T11:15:16;0.80;;;0.35;;
49372;SDS011;44113;38.408;-122.974;2022-08-05T11:17:46;0.77;;;0.10;;
49372;SDS011;44113;38.408;-122.974;2022-08-05T11:20:36;6.57;;;0.30;;
49372;SDS011;44113;38.408;-122.974;2022-08-05T11:26:10;3.60;;;0.10;;
49372;SDS011;44113;38.408;-122.974;2022-08-05T11:28:52;5.82;;;0.30;;
49372;SDS011;44113;38.408;-122.974;2022-08-05T11:31:26;1.63;;;0.10;;
49372;SDS011;44113;38.408;-122.974;2022-08-05T11:33:56;1.77;;;0.15;;
49372;SDS011;44113;38.408;-122.974;2022-08-05T11:39:16;0.63;;;0.10;;
49372;SDS011;44113;38.408;-122.974;2022-08-05T11:42:03;0.40;;;0.10;;
49372;SDS011;44113;38.408;-122.974;2022-08-05T11:44:36;0.65;;;0.10;;
49372;SDS011;44113;38.408;-122.974;2022-08-05T11:47:03;1.27;;;0.10;;
49372;SDS011;44113;38.408;-122.974;2022-08-05T11:49:30;0.30;;;0.10;;
49372;SDS011;44113;38.408;-122.974;2022-08-05T11:51:57;1.25;;;0.20;;
49372;SDS011;44113;38.408;-122.974;2022-08-05T11:54:25;1.85;;;0.10;;
49372;SDS011;44113;38.408;-122.974;2022-08-05T11:56:54;0.60;;;0.20;;
49372;SDS011;44113;38.408;-122.974;2022-08-05T11:59:23;0.32;;;0.10;;
49372;SDS011;44113;38.408;-122.974;2022-08-05T12:02:07;2.42;;;0.10;;
49372;SDS011;44113;38.408;-122.974;2022-08-05T12:04:44;0.65;;;0.10;;
49372;SDS011;44113;38.408;-122.974;2022-08-05T12:07:15;0.40;;;0.10;;
49372;SDS011;44113;38.408;-122.974;2022-08-05T12:09:47;0.30;;;0.10;;
49372;SDS011;44113;38.408;-122.974;2022-08-05T12:12:23;2.47;;;0.10;;
49372;SDS011;44113;38.408;-122.974;2022-08-05T12:14:53;3.00;;;0.10;;
49372;SDS011;44113;38.408;-122.974;2022-08-05T12:17:20;0.40;;;0.10;;
49372;SDS011;44113;38.408;-122.974;2022-08-05T12:19:48;1.90;;;0.25;;
49372;SDS011;44113;38.408;-122.974;2022-08-05T12:22:17;1.75;;;0.40;;
49372;SDS011;44113;38.408;-122.974;2022-08-05T12:24:46;0.10;;;0.10;;
49372;SDS011;44113;38.408;-122.974;2022-08-05T12:29:57;0.47;;;0.10;;
49372;SDS011;44113;38.408;-122.974;2022-08-05T12:32:24;0.20;;;0.10;;
49372;SDS011;44113;38.408;-122.974;2022-08-05T12:34:51;0.50;;;0.00;;
49372;SDS011;44113;38.408;-122.974;2022-08-05T12:37:18;0.40;;;0.10;;
49372;SDS011;44113;38.408;-122.974;2022-08-05T12:39:44;0.75;;;0.10;;
49372;SDS011;44113;38.408;-122.974;2022-08-05T12:42:12;0.38;;;0.10;;
49372;SDS011;44113;38.408;-122.974;2022-08-05T12:44:41;0.45;;;0.10;;
49372;SDS011;44113;38.408;-122.974;2022-08-05T12:47:10;1.33;;;0.10;;
49372;SDS011;44113;38.408;-122.974;2022-08-05T12:49:39;0.40;;;0.10;;
49372;SDS011;44113;38.408;-122.974;2022-08-05T12:52:14;0.38;;;0.10;;
49372;SDS011;44113;38.408;-122.974;2022-08-05T12:54:45;0.30;;;0.10;;
49372;SDS011;44113;38.408;-122.974;2022-08-05T12:57:13;1.55;;;0.20;;
49372;SDS011;44113;38.408;-122.974;2022-08-05T12:59:45;0.60;;;0.10;;
49372;SDS011;44113;38.408;-122.974;2022-08-05T13:02:19;1.15;;;0.10;;
49372;SDS011;44113;38.408;-122.974;2022-08-05T13:04:48;0.20;;;0.10;;
49372;SDS011;44113;38.408;-122.974;2022-08-05T13:07:20;0.50;;;0.20;;
49372;SDS011;44113;38.408;-122.974;2022-08-05T13:09:52;2.08;;;0.13;;
49372;SDS011;44113;38.408;-122.974;2022-08-05T13:12:21;0.22;;;0.10;;
49372;SDS011;44113;38.408;-122.974;2022-08-05T13:14:58;0.65;;;0.10;;
49372;SDS011;44113;38.408;-122.974;2022-08-05T13:17:30;0.47;;;0.10;;
49372;SDS011;44113;38.408;-122.974;2022-08-05T13:22:25;0.50;;;0.20;;
49372;SDS011;44113;38.408;-122.974;2022-08-05T13:24:53;4.03;;;0.30;;
49372;SDS011;44113;38.408;-122.974;2022-08-05T13:27:27;0.65;;;0.10;;
49372;SDS011;44113;38.408;-122.974;2022-08-05T13:29:55;0.32;;;0.10;;
49372;SDS011;44113;38.408;-122.974;2022-08-05T13:32:23;0.20;;;0.10;;
49372;SDS011;44113;38.408;-122.974;2022-08-05T13:34:50;0.95;;;0.20;;
49372;SDS011;44113;38.408;-122.974;2022-08-05T13:37:17;0.20;;;0.10;;
49372;SDS011;44113;38.408;-122.974;2022-08-05T13:39:46;0.25;;;0.10;;
49372;SDS011;44113;38.408;-122.974;2022-08-05T13:42:13;0.30;;;0.10;;
49372;SDS011;44113;38.408;-122.974;2022-08-05T13:44:39;0.40;;;0.10;;
49372;SDS011;44113;38.408;-122.974;2022-08-05T13:47:09;1.67;;;0.10;;
49372;SDS011;44113;38.408;-122.974;2022-08-05T13:49:36;0.40;;;0.10;;
49372;SDS011;44113;38.408;-122.974;2022-08-05T13:52:13;0.52;;;0.10;;
49372;SDS011;44113;38.408;-122.974;2022-08-05T13:54:47;0.40;;;0.10;;
49372;SDS011;44113;38.408;-122.974;2022-08-05T13:57:14;0.22;;;0.10;;
49372;SDS011;44113;38.408;-122.974;2022-08-05T13:59:41;1.95;;;0.10;;
49372;SDS011;44113;38.408;-122.974;2022-08-05T14:02:10;0.93;;;0.10;;
49372;SDS011;44113;38.408;-122.974;2022-08-05T14:04:41;0.30;;;0.10;;
49372;SDS011;44113;38.408;-122.974;2022-08-05T14:07:37;8.68;;;0.20;;
49372;SDS011;44113;38.408;-122.974;2022-08-05T14:10:15;0.63;;;0.10;;
49372;SDS011;44113;38.408;-122.974;2022-08-05T14:12:47;2.03;;;0.40;;
49372;SDS011;44113;38.408;-122.974;2022-08-05T14:15:13;0.43;;;0.10;;
49372;SDS011;44113;38.408;-122.974;2022-08-05T14:17:40;0.75;;;0.10;;
49372;SDS011;44113;38.408;-122.974;2022-08-05T14:20:07;0.70;;;0.10;;
49372;SDS011;44113;38.408;-122.974;2022-08-05T14:22:34;1.48;;;0.10;;
49372;SDS011;44113;38.408;-122.974;2022-08-05T14:25:01;1.85;;;0.52;;
49372;SDS011;44113;38.408;-122.974;2022-08-05T14:27:28;0.82;;;0.10;;
49372;SDS011;44113;38.408;-122.974;2022-08-05T14:29:55;0.57;;;0.10;;
49372;SDS011;44113;38.408;-122.974;2022-08-05T14:32:22;1.20;;;0.20;;
49372;SDS011;44113;38.408;-122.974;2022-08-05T14:34:48;0.30;;;0.20;;
49372;SDS011;44113;38.408;-122.974;2022-08-05T14:37:16;0.70;;;0.10;;
49372;SDS011;44113;38.408;-122.974;2022-08-05T14:39:43;0.57;;;0.10;;
49372;SDS011;44113;38.408;-122.974;2022-08-05T14:42:10;0.57;;;0.10;;
49372;SDS011;44113;38.408;-122.974;2022-08-05T14:44:36;10.35;;;0.40;;
49372;SDS011;44113;38.408;-122.974;2022-08-05T14:47:03;0.30;;;0.10;;
49372;SDS011;44113;38.408;-122.974;2022-08-05T14:49:30;0.73;;;0.10;;
49372;SDS011;44113;38.408;-122.974;2022-08-05T14:51:56;1.75;;;0.20;;
49372;SDS011;44113;38.408;-122.974;2022-08-05T14:54:23;0.40;;;0.10;;
49372;SDS011;44113;38.408;-122.974;2022-08-05T14:56:51;0.50;;;0.20;;
49372;SDS011;44113;38.408;-122.974;2022-08-05T14:59:18;2.25;;;0.30;;
49372;SDS011;44113;38.408;-122.974;2022-08-05T15:01:46;2.10;;;0.10;;
49372;SDS011;44113;38.408;-122.974;2022-08-05T15:04:13;0.57;;;0.10;;
49372;SDS011;44113;38.408;-122.974;2022-08-05T15:06:40;0.98;;;0.10;;
49372;SDS011;44113;38.408;-122.974;2022-08-05T15:09:06;1.98;;;0.20;;